sensor_id;sensor_type;location;lat;lon;timestamp;temperature;humidity
26583;DHT22;14230;45.382;10.998;2022-10-16T00:01:46;16.80;99.90
26583;DHT22;14230;45.382;10.998;2022-10-16T00:04:15;16.80;99.90
26583;DHT22;14230;45.382;10.998;2022-10-16T00:06:45;16.90;99.90
26583;DHT22;14230;45.382;10.998;2022-10-16T00:09:15;16.90;99.90
26583;DHT22;14230;45.382;10.998;2022-10-16T00:11:44;16.80;99.90
26583;DHT22;14230;45.382;10.998;2022-10-16T00:14:14;16.80;99.90
26583;DHT22;14230;45.382;10.998;2022-10-16T00:16:44;16.80;99.90
26583;DHT22;14230;45.382;10.998;2022-10-16T00:19:13;16.80;99.90
26583;DHT22;14230;45.382;10.998;2022-10-16T00:21:42;16.70;99.90
26583;DHT22;14230;45.382;10.998;2022-10-16T00:24:12;16.70;99.90
26583;DHT22;14230;45.382;10.998;2022-10-16T00:26:41;16.70;99.90
26583;DHT22;14230;45.382;10.998;2022-10-16T00:29:10;16.70;99.90
26583;DHT22;14230;45.382;10.998;2022-10-16T00:31:40;16.70;99.90
26583;DHT22;14230;45.382;10.998;2022-10-16T00:34:09;16.70;99.90
26583;DHT22;14230;45.382;10.998;2022-10-16T00:36:38;16.70;99.90
26583;DHT22;14230;45.382;10.998;2022-10-16T00:39:08;16.60;99.90
26583;DHT22;14230;45.382;10.998;2022-10-16T00:41:37;16.60;99.90
26583;DHT22;14230;45.382;10.998;2022-10-16T00:47:35;16.50;99.90
26583;DHT22;14230;45.382;10.998;2022-10-16T00:50:13;16.50;99.90
26583;DHT22;14230;45.382;10.998;2022-10-16T00:52:47;16.50;99.90
26583;DHT22;14230;45.382;10.998;2022-10-16T00:55:17;16.30;99.90
26583;DHT22;14230;45.382;10.998;2022-10-16T00:57:49;16.30;99.90
26583;DHT22;14230;45.382;10.998;2022-10-16T01:00:22;16.20;99.90
26583;DHT22;14230;45.382;10.998;2022-10-16T01:05:30;16.00;99.90
26583;DHT22;14230;45.382;10.998;2022-10-16T01:08:22;16.00;99.90
26583;DHT22;14230;45.382;10.998;2022-10-16T01:10:59;15.80;99.90
26583;DHT22;14230;45.382;10.998;2022-10-16T01:13:35;15.80;99.90
26583;DHT22;14230;45.382;10.998;2022-10-16T01:16:13;15.80;99.90
26583;DHT22;14230;45.382;10.998;2022-10-16T01:18:57;15.80;99.90
26583;DHT22;14230;45.382;10.998;2022-10-16T01:21:36;15.60;99.90
26583;DHT22;14230;45.382;10.998;2022-10-16T01:24:17;15.70;99.90
26583;DHT22;14230;45.382;10.998;2022-10-16T01:27:11;15.60;99.90
26583;DHT22;14230;45.382;10.998;2022-10-16T01:29:48;15.60;99.90
26583;DHT22;14230;45.382;10.998;2022-10-16T01:32:35;15.60;99.90
26583;DHT22;14230;45.382;10.998;2022-10-16T01:35:17;15.70;99.90
26583;DHT22;14230;45.382;10.998;2022-10-16T01:38:10;15.70;99.90
26583;DHT22;14230;45.382;10.998;2022-10-16T01:40:46;15.70;99.90
26583;DHT22;14230;45.382;10.998;2022-10-16T01:43:29;15.60;99.90
26583;DHT22;14230;45.382;10.998;2022-10-16T01:46:01;15.60;99.90
26583;DHT22;14230;45.382;10.998;2022-10-16T01:48:31;15.70;99.90
26583;DHT22;14230;45.382;10.998;2022-10-16T01:51:20;15.70;99.90
26583;DHT22;14230;45.382;10.998;2022-10-16T01:53:53;15.70;99.90
26583;DHT22;14230;45.382;10.998;2022-10-16T01:56:25;15.60;99.90
26583;DHT22;14230;45.382;10.998;2022-10-16T01:59:09;15.60;99.90
26583;DHT22;14230;45.382;10.998;2022-10-16T02:01:40;15.70;99.90
26583;DHT22;14230;45.382;10.998;2022-10-16T02:04:24;15.60;99.90
26583;DHT22;14230;45.382;10.998;2022-10-16T02:06:54;15.50;99.90
26583;DHT22;14230;45.382;10.998;2022-10-16T02:09:24;15.60;99.90
26583;DHT22;14230;45.382;10.998;2022-10-16T02:11:55;15.50;99.90
26583;DHT22;14230;45.382;10.998;2022-10-16T02:14:26;15.50;99.90
26583;DHT22;14230;45.382;10.998;2022-10-16T02:16:54;15.60;99.90
26583;DHT22;14230;45.382;10.998;2022-10-16T02:19:22;15.60;99.90
26583;DHT22;14230;45.382;10.998;2022-10-16T02:27:05;15.70;99.90
26583;DHT22;14230;45.382;10.998;2022-10-16T02:29:39;15.80;99.90
26583;DHT22;14230;45.382;10.998;2022-10-16T02:32:07;15.80;99.90
26583;DHT22;14230;45.382;10.998;2022-10-16T02:34:36;15.80;99.90
26583;DHT22;14230;45.382;10.998;2022-10-16T02:37:04;15.80;99.90
26583;DHT22;14230;45.382;10.998;2022-10-16T02:39:33;15.80;99.90
26583;DHT22;14230;45.382;10.998;2022-10-16T02:42:01;15.90;99.90
26583;DHT22;14230;45.382;10.998;2022-10-16T02:44:28;16.00;99.90
26583;DHT22;14230;45.382;10.998;2022-10-16T02:46:57;15.90;99.90
26583;DHT22;14230;45.382;10.998;2022-10-16T02:49:24;15.90;99.90
26583;DHT22;14230;45.382;10.998;2022-10-16T02:51:51;15.80;99.90
26583;DHT22;14230;45.382;10.998;2022-10-16T02:54:19;15.80;99.90
26583;DHT22;14230;45.382;10.998;2022-10-16T02:56:46;15.90;99.90
26583;DHT22;14230;45.382;10.998;2022-10-16T02:59:14;15.90;99.90
26583;DHT22;14230;45.382;10.998;2022-10-16T03:01:42;16.00;99.90
26583;DHT22;14230;45.382;10.998;2022-10-16T03:04:09;16.00;99.90
26583;DHT22;14230;45.382;10.998;2022-10-16T03:06:37;16.10;99.90
26583;DHT22;14230;45.382;10.998;2022-10-16T03:09:05;16.20;99.90
26583;DHT22;14230;45.382;10.998;2022-10-16T03:11:32;16.20;99.90
26583;DHT22;14230;45.382;10.998;2022-10-16T03:14:00;16.20;99.90
26583;DHT22;14230;45.382;10.998;2022-10-16T03:16:27;16.20;99.90
26583;DHT22;14230;45.382;10.998;2022-10-16T03:18:55;16.20;99.90
26583;DHT22;14230;45.382;10.998;2022-10-16T03:21:22;16.20;99.90
26583;DHT22;14230;45.382;10.998;2022-10-16T03:23:49;16.20;99.90
26583;DHT22;14230;45.382;10.998;2022-10-16T03:26:17;16.20;99.90
26583;DHT22;14230;45.382;10.998;2022-10-16T03:28:44;16.20;99.90
26583;DHT22;14230;45.382;10.998;2022-10-16T03:31:12;16.10;99.90
26583;DHT22;14230;45.382;10.998;2022-10-16T03:33:39;16.10;99.90
26583;DHT22;14230;45.382;10.998;2022-10-16T03:36:07;16.10;99.90
26583;DHT22;14230;45.382;10.998;2022-10-16T03:38:34;16.00;99.90
26583;DHT22;14230;45.382;10.998;2022-10-16T03:41:02;16.10;99.90
26583;DHT22;14230;45.382;10.998;2022-10-16T03:43:31;16.10;99.90
26583;DHT22;14230;45.382;10.998;2022-10-16T03:45:58;16.10;99.90
26583;DHT22;14230;45.382;10.998;2022-10-16T03:48:25;16.10;99.90
26583;DHT22;14230;45.382;10.998;2022-10-16T03:50:53;16.10;99.90
26583;DHT22;14230;45.382;10.998;2022-10-16T03:53:22;16.20;99.90
26583;DHT22;14230;45.382;10.998;2022-10-16T03:55:49;16.30;99.90
26583;DHT22;14230;45.382;10.998;2022-10-16T03:58:17;16.20;99.90
26583;DHT22;14230;45.382;10.998;2022-10-16T04:00:45;16.30;99.90
26583;DHT22;14230;45.382;10.998;2022-10-16T04:03:14;16.20;99.90
26583;DHT22;14230;45.382;10.998;2022-10-16T04:05:41;16.20;99.90
26583;DHT22;14230;45.382;10.998;2022-10-16T04:08:09;16.20;99.90
26583;DHT22;14230;45.382;10.998;2022-10-16T04:10:37;16.10;99.90
26583;DHT22;14230;45.382;10.998;2022-10-16T04:13:04;16.10;99.90
26583;DHT22;14230;45.382;10.998;2022-10-16T04:15:31;16.10;99.90
26583;DHT22;14230;45.382;10.998;2022-10-16T04:17:59;16.10;99.90
26583;DHT22;14230;45.382;10.998;2022-10-16T04:20:26;16.10;99.90
26583;DHT22;14230;45.382;10.998;2022-10-16T04:22:54;16.10;99.90
26583;DHT22;14230;45.382;10.998;2022-10-16T04:25:22;16.10;99.90
26583;DHT22;14230;45.382;10.998;2022-10-16T04:27:49;16.10;99.90
26583;DHT22;14230;45.382;10.998;2022-10-16T04:30:17;16.10;99.90
26583;DHT22;14230;45.382;10.998;2022-10-16T04:32:48;16.10;99.90
26583;DHT22;14230;45.382;10.998;2022-10-16T04:35:17;16.00;99.90
26583;DHT22;14230;45.382;10.998;2022-10-16T04:37:44;16.00;99.90
26583;DHT22;14230;45.382;10.998;2022-10-16T04:40:12;16.00;99.90
26583;DHT22;14230;45.382;10.998;2022-10-16T04:42:40;16.00;99.90
26583;DHT22;14230;45.382;10.998;2022-10-16T04:45:09;16.00;99.90
26583;DHT22;14230;45.382;10.998;2022-10-16T04:47:42;16.10;99.90
26583;DHT22;14230;45.382;10.998;2022-10-16T04:50:09;16.00;99.90
26583;DHT22;14230;45.382;10.998;2022-10-16T04:52:37;15.90;99.90
26583;DHT22;14230;45.382;10.998;2022-10-16T04:55:08;16.00;99.90
26583;DHT22;14230;45.382;10.998;2022-10-16T04:57:35;16.00;99.90
26583;DHT22;14230;45.382;10.998;2022-10-16T05:00:03;16.00;99.90
26583;DHT22;14230;45.382;10.998;2022-10-16T05:02:31;16.10;99.90
26583;DHT22;14230;45.382;10.998;2022-10-16T05:04:58;16.20;99.90
26583;DHT22;14230;45.382;10.998;2022-10-16T05:07:26;16.20;99.90
26583;DHT22;14230;45.382;10.998;2022-10-16T05:09:54;16.20;99.90
26583;DHT22;14230;45.382;10.998;2022-10-16T05:12:22;16.20;99.90
26583;DHT22;14230;45.382;10.998;2022-10-16T05:14:49;16.20;99.90
26583;DHT22;14230;45.382;10.998;2022-10-16T05:17:17;16.20;99.90
26583;DHT22;14230;45.382;10.998;2022-10-16T05:19:44;16.20;99.90
26583;DHT22;14230;45.382;10.998;2022-10-16T05:22:11;16.20;99.90
26583;DHT22;14230;45.382;10.998;2022-10-16T05:24:39;16.20;99.90
26583;DHT22;14230;45.382;10.998;2022-10-16T05:27:06;16.20;99.90
26583;DHT22;14230;45.382;10.998;2022-10-16T05:29:34;16.20;99.90
26583;DHT22;14230;45.382;10.998;2022-10-16T05:32:02;16.30;99.90
26583;DHT22;14230;45.382;10.998;2022-10-16T05:34:30;16.40;99.90
26583;DHT22;14230;45.382;10.998;2022-10-16T05:36:57;16.50;99.90
26583;DHT22;14230;45.382;10.998;2022-10-16T05:39:25;16.50;99.90
26583;DHT22;14230;45.382;10.998;2022-10-16T05:41:52;16.50;99.90
26583;DHT22;14230;45.382;10.998;2022-10-16T05:44:19;16.50;99.90
26583;DHT22;14230;45.382;10.998;2022-10-16T05:46:47;16.40;99.90
26583;DHT22;14230;45.382;10.998;2022-10-16T05:49:15;16.50;99.90
26583;DHT22;14230;45.382;10.998;2022-10-16T05:51:43;16.50;99.90
26583;DHT22;14230;45.382;10.998;2022-10-16T05:54:10;16.50;99.90
26583;DHT22;14230;45.382;10.998;2022-10-16T05:56:38;16.60;99.90
26583;DHT22;14230;45.382;10.998;2022-10-16T05:59:05;16.70;99.90
26583;DHT22;14230;45.382;10.998;2022-10-16T06:01:33;16.80;99.90
26583;DHT22;14230;45.382;10.998;2022-10-16T06:04:00;16.90;99.90
26583;DHT22;14230;45.382;10.998;2022-10-16T06:06:29;17.00;99.90
26583;DHT22;14230;45.382;10.998;2022-10-16T06:08:57;17.10;99.90
26583;DHT22;14230;45.382;10.998;2022-10-16T06:11:27;17.00;99.90
26583;DHT22;14230;45.382;10.998;2022-10-16T06:13:57;17.10;99.90
26583;DHT22;14230;45.382;10.998;2022-10-16T06:16:26;17.10;99.90
26583;DHT22;14230;45.382;10.998;2022-10-16T06:18:55;17.10;99.90
26583;DHT22;14230;45.382;10.998;2022-10-16T06:21:27;17.10;99.90
26583;DHT22;14230;45.382;10.998;2022-10-16T06:23:56;17.10;99.90
26583;DHT22;14230;45.382;10.998;2022-10-16T06:26:27;17.00;99.90
26583;DHT22;14230;45.382;10.998;2022-10-16T06:28:56;17.00;99.90
26583;DHT22;14230;45.382;10.998;2022-10-16T06:31:24;16.90;99.90
26583;DHT22;14230;45.382;10.998;2022-10-16T06:33:54;16.90;99.90
26583;DHT22;14230;45.382;10.998;2022-10-16T06:36:23;16.90;99.90
26583;DHT22;14230;45.382;10.998;2022-10-16T06:38:52;17.00;99.90
26583;DHT22;14230;45.382;10.998;2022-10-16T06:41:21;17.10;99.90
26583;DHT22;14230;45.382;10.998;2022-10-16T06:43:49;17.10;99.90
26583;DHT22;14230;45.382;10.998;2022-10-16T06:46:19;17.10;99.90
26583;DHT22;14230;45.382;10.998;2022-10-16T06:48:47;17.20;99.90
26583;DHT22;14230;45.382;10.998;2022-10-16T06:51:16;17.30;99.90
26583;DHT22;14230;45.382;10.998;2022-10-16T06:53:47;17.40;99.90
26583;DHT22;14230;45.382;10.998;2022-10-16T06:56:30;17.40;99.90
26583;DHT22;14230;45.382;10.998;2022-10-16T06:58:58;17.50;99.90
26583;DHT22;14230;45.382;10.998;2022-10-16T07:01:26;17.50;99.90
26583;DHT22;14230;45.382;10.998;2022-10-16T07:03:54;17.60;99.90
26583;DHT22;14230;45.382;10.998;2022-10-16T07:06:23;17.70;99.90
26583;DHT22;14230;45.382;10.998;2022-10-16T07:08:51;17.80;99.90
26583;DHT22;14230;45.382;10.998;2022-10-16T07:11:21;17.80;99.90
26583;DHT22;14230;45.382;10.998;2022-10-16T07:13:49;17.90;99.90
26583;DHT22;14230;45.382;10.998;2022-10-16T07:16:26;18.00;99.90
26583;DHT22;14230;45.382;10.998;2022-10-16T07:18:58;18.00;99.90
26583;DHT22;14230;45.382;10.998;2022-10-16T07:21:30;18.10;99.90
26583;DHT22;14230;45.382;10.998;2022-10-16T07:23:59;18.20;99.90
26583;DHT22;14230;45.382;10.998;2022-10-16T07:26:33;18.30;99.90
26583;DHT22;14230;45.382;10.998;2022-10-16T07:29:01;18.40;99.90
26583;DHT22;14230;45.382;10.998;2022-10-16T07:31:29;18.50;99.90
26583;DHT22;14230;45.382;10.998;2022-10-16T07:33:58;18.60;99.90
26583;DHT22;14230;45.382;10.998;2022-10-16T07:36:25;18.70;99.90
26583;DHT22;14230;45.382;10.998;2022-10-16T07:38:53;18.80;99.90
26583;DHT22;14230;45.382;10.998;2022-10-16T07:41:27;18.90;99.90
26583;DHT22;14230;45.382;10.998;2022-10-16T07:43:55;18.90;99.90
26583;DHT22;14230;45.382;10.998;2022-10-16T07:46:24;19.00;99.90
26583;DHT22;14230;45.382;10.998;2022-10-16T07:48:52;18.90;99.90
26583;DHT22;14230;45.382;10.998;2022-10-16T07:51:22;18.90;99.90
26583;DHT22;14230;45.382;10.998;2022-10-16T07:53:50;18.80;99.90
26583;DHT22;14230;45.382;10.998;2022-10-16T07:56:20;19.00;99.90
26583;DHT22;14230;45.382;10.998;2022-10-16T07:58:48;19.10;99.90
26583;DHT22;14230;45.382;10.998;2022-10-16T08:01:17;19.40;99.90
26583;DHT22;14230;45.382;10.998;2022-10-16T08:03:47;19.40;99.90
26583;DHT22;14230;45.382;10.998;2022-10-16T08:06:15;19.40;99.90
26583;DHT22;14230;45.382;10.998;2022-10-16T08:08:44;19.60;99.90
26583;DHT22;14230;45.382;10.998;2022-10-16T08:11:11;19.60;99.90
26583;DHT22;14230;45.382;10.998;2022-10-16T08:13:39;19.70;99.90
26583;DHT22;14230;45.382;10.998;2022-10-16T08:16:07;19.60;99.90
26583;DHT22;14230;45.382;10.998;2022-10-16T08:18:39;19.40;99.90
26583;DHT22;14230;45.382;10.998;2022-10-16T08:21:08;19.30;99.90
26583;DHT22;14230;45.382;10.998;2022-10-16T08:23:44;19.30;99.90
26583;DHT22;14230;45.382;10.998;2022-10-16T08:26:12;19.20;99.90
26583;DHT22;14230;45.382;10.998;2022-10-16T08:28:40;19.10;99.90
26583;DHT22;14230;45.382;10.998;2022-10-16T08:31:13;19.10;99.90
26583;DHT22;14230;45.382;10.998;2022-10-16T08:33:43;19.60;99.90
26583;DHT22;14230;45.382;10.998;2022-10-16T08:36:12;20.90;99.90
26583;DHT22;14230;45.382;10.998;2022-10-16T08:38:40;22.20;99.90
26583;DHT22;14230;45.382;10.998;2022-10-16T08:43:59;24.20;99.90
26583;DHT22;14230;45.382;10.998;2022-10-16T08:49:03;26.10;99.90
26583;DHT22;14230;45.382;10.998;2022-10-16T08:51:37;27.10;99.90
26583;DHT22;14230;45.382;10.998;2022-10-16T08:57:16;27.60;99.90
26583;DHT22;14230;45.382;10.998;2022-10-16T08:59:51;27.90;99.90
26583;DHT22;14230;45.382;10.998;2022-10-16T09:02:27;28.50;99.90
26583;DHT22;14230;45.382;10.998;2022-10-16T09:19:58;28.30;99.90
26583;DHT22;14230;45.382;10.998;2022-10-16T09:22:31;28.40;99.90
26583;DHT22;14230;45.382;10.998;2022-10-16T09:25:12;28.80;99.90
26583;DHT22;14230;45.382;10.998;2022-10-16T09:27:41;29.10;99.90
26583;DHT22;14230;45.382;10.998;2022-10-16T09:30:20;29.80;99.90
26583;DHT22;14230;45.382;10.998;2022-10-16T09:32:50;29.60;99.90
26583;DHT22;14230;45.382;10.998;2022-10-16T09:35:40;30.10;99.90
26583;DHT22;14230;45.382;10.998;2022-10-16T09:38:08;30.40;99.90
26583;DHT22;14230;45.382;10.998;2022-10-16T09:40:38;30.30;99.90
26583;DHT22;14230;45.382;10.998;2022-10-16T09:43:22;30.20;99.90
26583;DHT22;14230;45.382;10.998;2022-10-16T09:45:59;30.10;99.90
26583;DHT22;14230;45.382;10.998;2022-10-16T09:48:31;30.30;99.90
26583;DHT22;14230;45.382;10.998;2022-10-16T09:51:03;30.50;99.90
26583;DHT22;14230;45.382;10.998;2022-10-16T09:53:45;30.20;99.90
26583;DHT22;14230;45.382;10.998;2022-10-16T09:56:25;30.60;99.90
26583;DHT22;14230;45.382;10.998;2022-10-16T09:58:56;30.60;99.90
26583;DHT22;14230;45.382;10.998;2022-10-16T10:01:36;30.00;99.90
26583;DHT22;14230;45.382;10.998;2022-10-16T10:04:05;30.00;99.90
26583;DHT22;14230;45.382;10.998;2022-10-16T10:06:35;30.00;99.90
26583;DHT22;14230;45.382;10.998;2022-10-16T10:09:06;29.30;99.90
26583;DHT22;14230;45.382;10.998;2022-10-16T10:16:46;28.30;99.90
26583;DHT22;14230;45.382;10.998;2022-10-16T10:19:22;28.20;99.90
26583;DHT22;14230;45.382;10.998;2022-10-16T10:21:52;28.00;99.90
26583;DHT22;14230;45.382;10.998;2022-10-16T10:24:20;27.40;99.90
26583;DHT22;14230;45.382;10.998;2022-10-16T10:27:08;27.30;99.90
26583;DHT22;14230;45.382;10.998;2022-10-16T10:29:49;27.50;99.90
26583;DHT22;14230;45.382;10.998;2022-10-16T10:35:14;27.60;99.90
26583;DHT22;14230;45.382;10.998;2022-10-16T10:37:47;27.70;99.90
26583;DHT22;14230;45.382;10.998;2022-10-16T10:43:13;27.90;99.90
26583;DHT22;14230;45.382;10.998;2022-10-16T10:45:48;27.90;99.90
26583;DHT22;14230;45.382;10.998;2022-10-16T10:51:23;28.20;99.90
26583;DHT22;14230;45.382;10.998;2022-10-16T10:56:44;26.50;99.90
26583;DHT22;14230;45.382;10.998;2022-10-16T11:01:54;25.50;99.90
26583;DHT22;14230;45.382;10.998;2022-10-16T11:07:05;24.70;99.90
26583;DHT22;14230;45.382;10.998;2022-10-16T11:09:40;24.40;99.90
26583;DHT22;14230;45.382;10.998;2022-10-16T11:12:26;24.30;99.90
26583;DHT22;14230;45.382;10.998;2022-10-16T11:15:29;24.40;99.90
26583;DHT22;14230;45.382;10.998;2022-10-16T11:18:07;24.40;99.90
26583;DHT22;14230;45.382;10.998;2022-10-16T11:20:41;24.60;99.90
26583;DHT22;14230;45.382;10.998;2022-10-16T11:23:59;24.80;99.90
26583;DHT22;14230;45.382;10.998;2022-10-16T11:26:33;24.60;99.90
26583;DHT22;14230;45.382;10.998;2022-10-16T11:29:03;24.50;99.90
26583;DHT22;14230;45.382;10.998;2022-10-16T11:31:40;24.40;99.90
26583;DHT22;14230;45.382;10.998;2022-10-16T11:37:27;24.30;99.90
26583;DHT22;14230;45.382;10.998;2022-10-16T11:42:49;24.10;99.90
26583;DHT22;14230;45.382;10.998;2022-10-16T11:45:41;23.80;99.90
26583;DHT22;14230;45.382;10.998;2022-10-16T11:48:27;23.80;99.90
26583;DHT22;14230;45.382;10.998;2022-10-16T11:51:38;23.90;99.90
26583;DHT22;14230;45.382;10.998;2022-10-16T11:56:45;24.00;99.90
26583;DHT22;14230;45.382;10.998;2022-10-16T11:59:23;24.20;99.90
26583;DHT22;14230;45.382;10.998;2022-10-16T12:01:54;24.30;99.90
26583;DHT22;14230;45.382;10.998;2022-10-16T12:04:34;24.40;99.90
26583;DHT22;14230;45.382;10.998;2022-10-16T12:07:27;24.50;99.90
26583;DHT22;14230;45.382;10.998;2022-10-16T12:10:20;24.50;99.90
26583;DHT22;14230;45.382;10.998;2022-10-16T12:12:53;24.50;99.90
26583;DHT22;14230;45.382;10.998;2022-10-16T12:15:23;24.30;99.90
26583;DHT22;14230;45.382;10.998;2022-10-16T12:18:23;23.90;99.90
26583;DHT22;14230;45.382;10.998;2022-10-16T12:20:57;23.80;99.90
26583;DHT22;14230;45.382;10.998;2022-10-16T12:23:28;23.90;99.90
26583;DHT22;14230;45.382;10.998;2022-10-16T12:25:58;24.00;99.90
26583;DHT22;14230;45.382;10.998;2022-10-16T12:28:30;24.10;99.90
26583;DHT22;14230;45.382;10.998;2022-10-16T12:33:36;24.20;99.90
26583;DHT22;14230;45.382;10.998;2022-10-16T12:36:15;24.30;99.90
26583;DHT22;14230;45.382;10.998;2022-10-16T12:38:47;24.30;99.90
26583;DHT22;14230;45.382;10.998;2022-10-16T12:41:25;24.30;99.90
26583;DHT22;14230;45.382;10.998;2022-10-16T12:43:54;24.30;99.90
26583;DHT22;14230;45.382;10.998;2022-10-16T12:46:45;24.30;99.90
26583;DHT22;14230;45.382;10.998;2022-10-16T12:51:43;24.20;99.90
26583;DHT22;14230;45.382;10.998;2022-10-16T12:54:30;24.00;99.90
26583;DHT22;14230;45.382;10.998;2022-10-16T12:57:08;24.00;99.90
26583;DHT22;14230;45.382;10.998;2022-10-16T13:13:39;23.90;99.90
26583;DHT22;14230;45.382;10.998;2022-10-16T13:21:51;24.00;99.90
26583;DHT22;14230;45.382;10.998;2022-10-16T13:32:36;23.80;99.90
26583;DHT22;14230;45.382;10.998;2022-10-16T13:35:22;23.90;99.90
26583;DHT22;14230;45.382;10.998;2022-10-16T13:37:51;24.00;99.90
26583;DHT22;14230;45.382;10.998;2022-10-16T13:40:22;23.90;99.90
26583;DHT22;14230;45.382;10.998;2022-10-16T13:42:51;23.80;99.90
26583;DHT22;14230;45.382;10.998;2022-10-16T13:45:22;23.80;99.90
26583;DHT22;14230;45.382;10.998;2022-10-16T13:48:00;23.80;99.90
26583;DHT22;14230;45.382;10.998;2022-10-16T13:50:28;23.80;99.90
26583;DHT22;14230;45.382;10.998;2022-10-16T13:53:06;23.80;99.90
26583;DHT22;14230;45.382;10.998;2022-10-16T13:55:34;23.70;99.90
26583;DHT22;14230;45.382;10.998;2022-10-16T13:58:07;23.70;99.90
26583;DHT22;14230;45.382;10.998;2022-10-16T14:00:35;23.70;99.90
26583;DHT22;14230;45.382;10.998;2022-10-16T14:03:23;23.80;99.90
26583;DHT22;14230;45.382;10.998;2022-10-16T14:05:57;23.70;99.90
26583;DHT22;14230;45.382;10.998;2022-10-16T14:08:27;23.70;99.90
26583;DHT22;14230;45.382;10.998;2022-10-16T14:10:58;23.80;99.90
26583;DHT22;14230;45.382;10.998;2022-10-16T14:13:36;23.80;99.90
26583;DHT22;14230;45.382;10.998;2022-10-16T14:16:07;23.80;99.90
26583;DHT22;14230;45.382;10.998;2022-10-16T14:18:37;23.80;99.90
26583;DHT22;14230;45.382;10.998;2022-10-16T14:21:13;23.70;99.90
26583;DHT22;14230;45.382;10.998;2022-10-16T14:23:42;23.80;99.90
26583;DHT22;14230;45.382;10.998;2022-10-16T14:28:37;23.80;99.90
26583;DHT22;14230;45.382;10.998;2022-10-16T14:33:47;23.70;99.90
26583;DHT22;14230;45.382;10.998;2022-10-16T14:36:16;23.70;99.90
26583;DHT22;14230;45.382;10.998;2022-10-16T14:39:03;23.60;99.90
26583;DHT22;14230;45.382;10.998;2022-10-16T14:41:32;23.50;99.90
26583;DHT22;14230;45.382;10.998;2022-10-16T14:44:03;23.50;99.90
26583;DHT22;14230;45.382;10.998;2022-10-16T14:46:34;23.50;99.90
26583;DHT22;14230;45.382;10.998;2022-10-16T14:51:39;23.40;99.90
26583;DHT22;14230;45.382;10.998;2022-10-16T14:54:13;23.40;99.90
26583;DHT22;14230;45.382;10.998;2022-10-16T15:01:48;23.30;99.90
26583;DHT22;14230;45.382;10.998;2022-10-16T15:04:16;23.30;99.90
26583;DHT22;14230;45.382;10.998;2022-10-16T15:06:43;23.30;99.90
26583;DHT22;14230;45.382;10.998;2022-10-16T15:09:11;23.30;99.90
26583;DHT22;14230;45.382;10.998;2022-10-16T15:11:39;23.30;99.90
26583;DHT22;14230;45.382;10.998;2022-10-16T15:14:11;23.20;99.90
26583;DHT22;14230;45.382;10.998;2022-10-16T15:16:39;23.20;99.90
26583;DHT22;14230;45.382;10.998;2022-10-16T15:19:06;23.10;99.90
26583;DHT22;14230;45.382;10.998;2022-10-16T15:21:33;23.10;99.90
26583;DHT22;14230;45.382;10.998;2022-10-16T15:24:01;23.00;99.90
26583;DHT22;14230;45.382;10.998;2022-10-16T15:26:29;23.00;99.90
26583;DHT22;14230;45.382;10.998;2022-10-16T15:28:57;22.90;99.90
26583;DHT22;14230;45.382;10.998;2022-10-16T15:31:25;22.90;99.90
26583;DHT22;14230;45.382;10.998;2022-10-16T15:33:53;22.80;99.90
26583;DHT22;14230;45.382;10.998;2022-10-16T15:36:29;22.70;99.90
26583;DHT22;14230;45.382;10.998;2022-10-16T15:38:57;22.60;99.90
26583;DHT22;14230;45.382;10.998;2022-10-16T15:41:27;22.50;99.90
26583;DHT22;14230;45.382;10.998;2022-10-16T15:43:55;22.40;99.90
26583;DHT22;14230;45.382;10.998;2022-10-16T15:46:23;22.40;99.90
26583;DHT22;14230;45.382;10.998;2022-10-16T15:48:56;22.30;99.90
26583;DHT22;14230;45.382;10.998;2022-10-16T15:51:25;22.20;99.90
26583;DHT22;14230;45.382;10.998;2022-10-16T15:53:56;22.20;99.90
26583;DHT22;14230;45.382;10.998;2022-10-16T15:56:24;22.10;99.90
26583;DHT22;14230;45.382;10.998;2022-10-16T15:58:52;22.00;99.90
26583;DHT22;14230;45.382;10.998;2022-10-16T16:01:21;22.00;99.90
26583;DHT22;14230;45.382;10.998;2022-10-16T16:03:53;21.90;99.90
26583;DHT22;14230;45.382;10.998;2022-10-16T16:06:21;21.80;99.90
26583;DHT22;14230;45.382;10.998;2022-10-16T16:08:53;21.80;99.90
26583;DHT22;14230;45.382;10.998;2022-10-16T16:11:21;21.70;99.90
26583;DHT22;14230;45.382;10.998;2022-10-16T16:13:50;21.60;99.90
26583;DHT22;14230;45.382;10.998;2022-10-16T16:16:18;21.60;99.90
26583;DHT22;14230;45.382;10.998;2022-10-16T16:18:47;21.50;99.90
26583;DHT22;14230;45.382;10.998;2022-10-16T16:21:16;21.40;99.90
26583;DHT22;14230;45.382;10.998;2022-10-16T16:23:44;21.30;99.90
26583;DHT22;14230;45.382;10.998;2022-10-16T16:26:18;21.30;99.90
26583;DHT22;14230;45.382;10.998;2022-10-16T16:28:48;21.20;99.90
26583;DHT22;14230;45.382;10.998;2022-10-16T16:31:16;21.10;99.90
26583;DHT22;14230;45.382;10.998;2022-10-16T16:33:44;21.00;99.90
26583;DHT22;14230;45.382;10.998;2022-10-16T16:36:12;20.90;99.90
26583;DHT22;14230;45.382;10.998;2022-10-16T16:38:42;20.90;99.90
26583;DHT22;14230;45.382;10.998;2022-10-16T16:41:18;20.80;99.90
26583;DHT22;14230;45.382;10.998;2022-10-16T16:43:47;20.80;99.90
26583;DHT22;14230;45.382;10.998;2022-10-16T16:46:15;20.80;99.90
26583;DHT22;14230;45.382;10.998;2022-10-16T16:48:42;20.70;99.90
26583;DHT22;14230;45.382;10.998;2022-10-16T16:51:15;20.60;99.90
26583;DHT22;14230;45.382;10.998;2022-10-16T16:53:45;20.50;99.90
26583;DHT22;14230;45.382;10.998;2022-10-16T16:56:13;20.50;99.90
26583;DHT22;14230;45.382;10.998;2022-10-16T16:58:41;20.40;99.90
26583;DHT22;14230;45.382;10.998;2022-10-16T17:01:09;20.40;99.90
26583;DHT22;14230;45.382;10.998;2022-10-16T17:03:54;20.30;99.90
26583;DHT22;14230;45.382;10.998;2022-10-16T17:06:25;20.30;99.90
26583;DHT22;14230;45.382;10.998;2022-10-16T17:08:53;20.20;99.90
26583;DHT22;14230;45.382;10.998;2022-10-16T17:11:23;20.20;99.90
26583;DHT22;14230;45.382;10.998;2022-10-16T17:13:51;20.10;99.90
26583;DHT22;14230;45.382;10.998;2022-10-16T17:16:26;20.10;99.90
26583;DHT22;14230;45.382;10.998;2022-10-16T17:18:54;19.90;99.90
26583;DHT22;14230;45.382;10.998;2022-10-16T17:21:21;19.80;99.90
26583;DHT22;14230;45.382;10.998;2022-10-16T17:23:51;19.70;99.90
26583;DHT22;14230;45.382;10.998;2022-10-16T17:26:19;19.60;99.90
26583;DHT22;14230;45.382;10.998;2022-10-16T17:28:51;19.40;99.90
26583;DHT22;14230;45.382;10.998;2022-10-16T17:31:24;19.30;99.90
26583;DHT22;14230;45.382;10.998;2022-10-16T17:33:52;19.20;99.90